Time;durP1;ratioP1;P1;durP2;ratioP2;P2;SDS_P1;SDS_P2;PMS_P1;PMS_P2;Temp;Humidity;BMP_temperature;BMP_pressure;BME280_temperature;BME280_humidity;BME280_pressure;Samples;Min_cycle;Max_cycle;Signal;HPM_P1;HPM_P2
2021/12/30 00:01:37;;;;;;;0.00;0.00;;;11.80;99.90;;;;;;5012135;28;20474;-83
2021/12/30 00:04:03;;;;;;;0.38;0.38;;;11.80;99.90;;;;;;5012159;28;20038;-83
2021/12/30 00:06:30;;;;;;;0.00;0.00;;;11.80;99.90;;;;;;5012057;28;20034;-79
2021/12/30 00:08:56;;;;;;;0.08;0.05;;;11.80;99.90;;;;;;5012390;28;20026;-83
2021/12/30 00:11:23;;;;;;;0.00;0.00;;;11.80;99.90;;;;;;5012419;28;20471;-83
2021/12/30 00:13:49;;;;;;;0.80;0.57;;;11.70;99.90;;;;;;5011068;28;20034;-80
2021/12/30 00:16:17;;;;;;;2.92;0.68;;;11.70;99.90;;;;;;5012129;28;20048;-82
2021/12/30 00:18:43;;;;;;;3.60;0.30;;;11.70;99.90;;;;;;5012246;28;20036;-79
2021/12/30 00:21:10;;;;;;;12.65;1.00;;;11.70;99.90;;;;;;5011903;28;20029;-79
2021/12/30 00:23:35;;;;;;;0.00;0.00;;;11.70;99.90;;;;;;5012347;28;20049;-83
2021/12/30 00:26:01;;;;;;;0.00;0.00;;;11.70;99.90;;;;;;5011064;28;20041;-83
2021/12/30 00:28:28;;;;;;;0.10;0.10;;;11.70;99.90;;;;;;5011965;28;20050;-83
2021/12/30 00:30:54;;;;;;;0.13;0.13;;;11.70;99.90;;;;;;5012141;28;20094;-79
2021/12/30 00:33:21;;;;;;;0.00;0.00;;;11.70;99.90;;;;;;5012175;28;20101;-79
2021/12/30 00:35:47;;;;;;;0.00;0.00;;;11.60;99.90;;;;;;5011884;28;20025;-82
2021/12/30 00:38:14;;;;;;;0.10;0.10;;;11.60;99.90;;;;;;5012206;28;20083;-83
2021/12/30 00:40:43;;;;;;;0.13;0.13;;;11.60;99.90;;;;;;5011801;28;20018;-83
2021/12/30 00:43:09;;;;;;;0.00;0.00;;;11.60;99.90;;;;;;5012132;28;20096;-83
2021/12/30 00:45:36;;;;;;;0.45;0.28;;;11.50;99.90;;;;;;5012033;28;20105;-79
2021/12/30 00:48:03;;;;;;;0.20;0.20;;;11.40;99.90;;;;;;5011628;28;20030;-83
2021/12/30 00:50:30;;;;;;;0.77;0.77;;;11.30;99.90;;;;;;5011330;28;20435;-83
2021/12/30 00:52:58;;;;;;;1.75;0.80;;;11.20;99.90;;;;;;5011861;28;20029;-83
2021/12/30 00:55:24;;;;;;;0.03;0.03;;;11.20;99.90;;;;;;5012035;28;20026;-83
2021/12/30 00:57:50;;;;;;;1.35;0.57;;;11.20;99.90;;;;;;5011925;28;20022;-79
2021/12/30 01:00:18;;;;;;;1.27;0.57;;;11.20;99.90;;;;;;5013104;28;20508;-79
2021/12/30 01:02:44;;;;;;;1.42;0.95;;;11.20;99.90;;;;;;5015468;28;20061;-83
2021/12/30 01:05:11;;;;;;;0.03;0.03;;;11.20;99.90;;;;;;5006997;28;20026;-83
2021/12/30 01:07:38;;;;;;;0.13;0.13;;;11.20;99.90;;;;;;4995967;28;20105;-83
2021/12/30 01:10:05;;;;;;;1.48;1.08;;;11.20;99.90;;;;;;4995262;28;20369;-79
2021/12/30 01:12:31;;;;;;;0.00;0.00;;;11.10;99.90;;;;;;4994192;28;20408;-83
2021/12/30 01:14:57;;;;;;;0.00;0.00;;;11.20;99.90;;;;;;4995568;28;20049;-79
2021/12/30 01:17:42;;;;;;;3.40;1.95;;;11.30;99.90;;;;;;4995324;28;20134;-83
2021/12/30 01:20:10;;;;;;;0.03;0.03;;;11.30;99.90;;;;;;4995167;28;20102;-83
2021/12/30 01:22:36;;;;;;;3.20;1.65;;;11.30;99.90;;;;;;4995046;28;20030;-83
2021/12/30 01:25:04;;;;;;;0.00;0.00;;;11.30;99.90;;;;;;4994197;28;20049;-79
2021/12/30 01:27:30;;;;;;;0.73;0.68;;;11.40;99.90;;;;;;4995378;28;20045;-83
2021/12/30 01:29:55;;;;;;;0.85;0.85;;;11.40;99.90;;;;;;4995096;28;20035;-83
2021/12/30 01:32:21;;;;;;;0.68;0.68;;;11.40;99.90;;;;;;4995111;28;20049;-83
2021/12/30 01:34:48;;;;;;;0.00;0.00;;;11.40;99.90;;;;;;4995130;28;20408;-83
2021/12/30 01:37:18;;;;;;;0.00;0.00;;;11.40;99.90;;;;;;4995241;28;20022;-79
2021/12/30 01:39:43;;;;;;;2.08;0.95;;;11.40;99.90;;;;;;4996452;28;20030;-82
2021/12/30 01:42:10;;;;;;;0.52;0.52;;;11.50;99.90;;;;;;5013099;28;20448;-83
2021/12/30 01:44:36;;;;;;;0.10;0.10;;;11.50;99.90;;;;;;5014755;28;20022;-83
2021/12/30 01:47:04;;;;;;;0.45;0.45;;;11.50;99.90;;;;;;5014505;28;20393;-83
2021/12/30 01:49:30;;;;;;;0.22;0.22;;;11.50;99.90;;;;;;5014203;28;20535;-79
2021/12/30 01:51:57;;;;;;;0.95;0.75;;;11.50;99.90;;;;;;5014197;28;20087;-79
2021/12/30 01:54:25;;;;;;;0.25;0.25;;;11.50;99.90;;;;;;5012825;28;20026;-83
2021/12/30 01:56:52;;;;;;;0.90;0.47;;;11.50;99.90;;;;;;5014533;28;20026;-83
2021/12/30 01:59:20;;;;;;;0.77;0.22;;;11.50;99.90;;;;;;5013164;28;20472;-83
2021/12/30 02:01:46;;;;;;;0.00;0.00;;;11.50;99.90;;;;;;5013400;28;20101;-82
2021/12/30 02:04:12;;;;;;;1.38;1.25;;;11.60;99.90;;;;;;5013212;28;20030;-79
2021/12/30 02:06:38;;;;;;;0.00;0.00;;;11.60;99.90;;;;;;4994434;28;20026;-83
2021/12/30 02:09:04;;;;;;;7.32;2.17;;;11.60;99.90;;;;;;4994627;28;20042;-83
2021/12/30 02:11:29;;;;;;;1.17;1.02;;;11.60;99.90;;;;;;4994265;28;20026;-83
2021/12/30 02:13:56;;;;;;;0.20;0.20;;;11.70;99.90;;;;;;4994402;28;20034;-83
2021/12/30 02:16:23;;;;;;;2.35;1.65;;;11.70;99.90;;;;;;4994226;28;20032;-79
2021/12/30 02:18:49;;;;;;;0.57;0.57;;;11.70;99.90;;;;;;4994324;28;20023;-83
2021/12/30 02:21:16;;;;;;;1.38;0.32;;;11.70;99.90;;;;;;4994016;28;20101;-83
2021/12/30 02:23:41;;;;;;;0.40;0.40;;;11.70;99.90;;;;;;4994356;28;20026;-82
2021/12/30 02:26:16;;;;;;;0.00;0.00;;;11.80;99.90;;;;;;4999253;28;20032;-82
2021/12/30 02:28:42;;;;;;;0.15;0.15;;;11.80;99.90;;;;;;5012319;28;20053;-79
2021/12/30 02:31:18;;;;;;;0.13;0.13;;;11.90;99.90;;;;;;5013749;28;20489;-79
2021/12/30 02:33:44;;;;;;;3.72;1.30;;;11.90;99.90;;;;;;5013687;28;20018;-83
2021/12/30 02:36:14;;;;;;;2.17;1.00;;;11.90;99.90;;;;;;5013482;28;20032;-83
2021/12/30 02:38:44;;;;;;;0.88;0.73;;;11.90;99.90;;;;;;5013627;28;20025;-83
2021/12/30 02:41:14;;;;;;;10.95;1.88;;;12.00;99.90;;;;;;5013264;28;20121;-79
2021/12/30 02:43:41;;;;;;;1.35;0.35;;;12.00;99.90;;;;;;5013790;28;20410;-79
2021/12/30 02:46:07;;;;;;;8.88;0.88;;;12.00;99.90;;;;;;5013380;28;20511;-83
2021/12/30 02:48:35;;;;;;;0.85;0.85;;;12.00;99.90;;;;;;5012684;28;20030;-83
2021/12/30 02:51:04;;;;;;;0.15;0.15;;;12.00;99.90;;;;;;5013013;28;20022;-79
2021/12/30 02:53:29;;;;;;;1.25;1.08;;;12.10;99.90;;;;;;5012952;28;20032;-79
2021/12/30 02:55:56;;;;;;;0.10;0.10;;;12.10;99.90;;;;;;5011977;28;20034;-79
2021/12/30 02:58:23;;;;;;;0.10;0.10;;;12.10;99.90;;;;;;5012225;28;20053;-83
2021/12/30 03:00:55;;;;;;;0.90;0.55;;;12.10;99.90;;;;;;5011741;28;20018;-82
2021/12/30 03:03:23;;;;;;;0.45;0.45;;;12.10;99.90;;;;;;5013251;28;20026;-83
2021/12/30 03:05:49;;;;;;;0.57;0.57;;;12.10;99.90;;;;;;4999740;28;20026;-82
2021/12/30 03:08:15;;;;;;;0.35;0.35;;;12.20;99.90;;;;;;4993529;28;20037;-79
2021/12/30 03:10:41;;;;;;;4.15;1.55;;;12.20;99.90;;;;;;5008604;28;20033;-79
2021/12/30 03:13:09;;;;;;;0.00;0.00;;;12.20;99.90;;;;;;4993548;28;20038;-83
2021/12/30 03:15:36;;;;;;;0.17;0.17;;;12.20;99.90;;;;;;4993466;28;20023;-83
2021/12/30 03:18:03;;;;;;;0.30;0.30;;;12.20;99.90;;;;;;4993027;28;20034;-83
2021/12/30 03:20:33;;;;;;;0.80;0.80;;;12.20;99.90;;;;;;4993382;28;20019;-82
2021/12/30 03:22:59;;;;;;;1.17;0.35;;;12.20;99.90;;;;;;4991259;28;20030;-83
2021/12/30 03:25:24;;;;;;;0.00;0.00;;;12.20;99.90;;;;;;4994131;28;20081;-83
2021/12/30 03:27:50;;;;;;;0.15;0.15;;;12.30;99.90;;;;;;5011436;28;20128;-83
2021/12/30 03:30:16;;;;;;;0.38;0.38;;;12.20;99.90;;;;;;5012795;28;20034;-83
2021/12/30 03:32:43;;;;;;;0.00;0.00;;;12.30;99.90;;;;;;5012855;28;20041;-83
2021/12/30 03:35:10;;;;;;;0.20;0.20;;;12.20;99.90;;;;;;5012577;28;20075;-78
2021/12/30 03:37:38;;;;;;;0.00;0.00;;;12.20;99.90;;;;;;5012548;28;20025;-78
2021/12/30 03:40:07;;;;;;;1.38;0.57;;;12.20;99.90;;;;;;5012261;28;20551;-83
2021/12/30 03:42:33;;;;;;;1.08;0.10;;;12.20;99.90;;;;;;5012990;28;20057;-83
2021/12/30 03:45:02;;;;;;;0.00;0.00;;;12.20;99.90;;;;;;5012819;28;20061;-82
2021/12/30 03:47:27;;;;;;;0.00;0.00;;;12.20;99.90;;;;;;5012463;28;20366;-78
2021/12/30 03:49:53;;;;;;;0.00;0.00;;;12.30;99.90;;;;;;5011943;28;20033;-79
2021/12/30 03:52:24;;;;;;;0.00;0.00;;;12.30;99.90;;;;;;5012260;28;20034;-82
2021/12/30 03:54:50;;;;;;;0.00;0.00;;;12.20;99.90;;;;;;5012596;28;20022;-82
2021/12/30 03:57:16;;;;;;;13.02;0.25;;;12.30;99.90;;;;;;5012677;28;20030;-82
2021/12/30 03:59:41;;;;;;;0.35;0.35;;;12.30;99.90;;;;;;5012608;28;20022;-82
2021/12/30 04:02:07;;;;;;;0.00;0.00;;;12.30;99.90;;;;;;5012159;28;20505;-82
2021/12/30 04:04:33;;;;;;;0.00;0.00;;;12.30;99.90;;;;;;5009589;28;20030;-82
2021/12/30 04:06:59;;;;;;;0.10;0.10;;;12.30;99.90;;;;;;4992526;28;20141;-82
2021/12/30 04:09:25;;;;;;;4.75;1.25;;;12.30;99.90;;;;;;4992540;28;20047;-82
2021/12/30 04:11:50;;;;;;;5.78;1.25;;;12.30;99.90;;;;;;4991232;28;20478;-79
2021/12/30 04:14:16;;;;;;;0.68;0.68;;;12.30;99.90;;;;;;5024146;28;20030;-79
2021/12/30 04:16:42;;;;;;;0.45;0.45;;;12.30;99.90;;;;;;4992583;28;20062;-79
2021/12/30 04:19:08;;;;;;;1.38;1.02;;;12.30;99.90;;;;;;4991644;28;20046;-79
2021/12/30 04:21:34;;;;;;;4.88;2.17;;;12.30;99.90;;;;;;5023715;28;20030;-83
2021/12/30 04:24:00;;;;;;;0.32;0.32;;;12.40;99.90;;;;;;4992821;28;20046;-82
2021/12/30 04:26:26;;;;;;;0.00;0.00;;;12.40;99.90;;;;;;5000375;28;20524;-79
2021/12/30 04:28:53;;;;;;;0.13;0.13;;;12.40;99.90;;;;;;5011807;28;20408;-79
2021/12/30 04:31:18;;;;;;;0.00;0.00;;;12.40;99.90;;;;;;5012283;28;20045;-79
2021/12/30 04:33:44;;;;;;;1.10;1.00;;;12.40;99.90;;;;;;5013956;28;20436;-81
2021/12/30 04:36:10;;;;;;;0.00;0.00;;;12.40;99.90;;;;;;5017912;28;20497;-83
2021/12/30 04:38:37;;;;;;;0.15;0.15;;;12.40;99.90;;;;;;5017787;28;20029;-79
2021/12/30 04:41:05;;;;;;;0.00;0.00;;;12.40;99.90;;;;;;5016264;28;20117;-79
2021/12/30 04:43:31;;;;;;;0.00;0.00;;;12.40;99.90;;;;;;5017615;28;20018;-82
2021/12/30 04:45:59;;;;;;;5.07;1.95;;;12.40;99.90;;;;;;5017247;28;20033;-83
2021/12/30 04:48:25;;;;;;;4.55;1.55;;;12.40;99.90;;;;;;5016617;28;20105;-79
2021/12/30 04:50:51;;;;;;;0.38;0.38;;;12.30;99.90;;;;;;5019496;28;20504;-79
2021/12/30 04:53:18;;;;;;;0.00;0.00;;;12.30;99.90;;;;;;5015517;28;20393;-79
2021/12/30 04:55:44;;;;;;;0.32;0.32;;;12.30;99.90;;;;;;5015624;28;20022;-81
2021/12/30 04:58:11;;;;;;;0.55;0.47;;;12.30;99.90;;;;;;5015600;28;20071;-82
2021/12/30 05:00:37;;;;;;;0.90;0.73;;;12.40;99.90;;;;;;5015482;28;20053;-82
2021/12/30 05:03:09;;;;;;;0.15;0.15;;;12.50;99.90;;;;;;5015551;28;20049;-82
2021/12/30 05:05:49;;;;;;;0.05;0.05;;;12.50;99.90;;;;;;5004017;28;20482;-79
2021/12/30 05:08:17;;;;;;;0.15;0.15;;;12.50;99.90;;;;;;4995896;28;20109;-82
2021/12/30 05:10:43;;;;;;;0.25;0.25;;;12.50;99.90;;;;;;4995400;28;20038;-82
2021/12/30 05:13:09;;;;;;;0.17;0.17;;;12.50;99.90;;;;;;4995772;28;20125;-82
2021/12/30 05:15:36;;;;;;;0.08;0.08;;;12.50;99.90;;;;;;4995548;28;20429;-82
2021/12/30 05:18:04;;;;;;;1.20;0.85;;;12.60;99.90;;;;;;4995134;28;20026;-79
2021/12/30 05:20:29;;;;;;;0.22;0.22;;;12.50;99.90;;;;;;4995318;28;20393;-79
2021/12/30 05:22:55;;;;;;;1.20;0.90;;;12.60;99.90;;;;;;4995439;28;20019;-82
2021/12/30 05:25:21;;;;;;;0.00;0.00;;;12.60;99.90;;;;;;4995837;28;20035;-82
2021/12/30 05:27:48;;;;;;;0.70;0.43;;;12.60;99.90;;;;;;5013418;28;20046;-82
2021/12/30 05:30:15;;;;;;;0.20;0.20;;;12.60;99.90;;;;;;5013147;28;20112;-79
2021/12/30 05:32:41;;;;;;;0.47;0.47;;;12.60;99.90;;;;;;5014313;28;20104;-78
2021/12/30 05:35:09;;;;;;;0.00;0.00;;;12.60;99.90;;;;;;5013350;28;20463;-82
2021/12/30 05:37:35;;;;;;;0.00;0.00;;;12.50;99.90;;;;;;5014828;28;20029;-82
2021/12/30 05:40:01;;;;;;;2.63;1.58;;;12.50;99.90;;;;;;5014400;28;20026;-82
2021/12/30 05:42:27;;;;;;;0.00;0.00;;;12.50;99.90;;;;;;5014825;28;20026;-83
2021/12/30 05:44:54;;;;;;;0.00;0.00;;;12.50;99.90;;;;;;5014859;28;20080;-79
2021/12/30 05:47:20;;;;;;;8.68;2.53;;;12.50;99.90;;;;;;5013653;28;20166;-79
2021/12/30 05:49:47;;;;;;;0.00;0.00;;;12.40;99.90;;;;;;5012729;28;20445;-81
2021/12/30 05:52:13;;;;;;;2.35;1.13;;;12.40;99.90;;;;;;5014412;28;20022;-82
2021/12/30 05:54:42;;;;;;;0.10;0.10;;;12.40;99.90;;;;;;5014565;28;20026;-83
2021/12/30 05:57:08;;;;;;;2.28;1.05;;;12.40;99.90;;;;;;5014502;28;20101;-82
2021/12/30 05:59:34;;;;;;;0.00;0.00;;;12.40;99.90;;;;;;5014135;28;20030;-79
2021/12/30 06:02:00;;;;;;;9.52;1.70;;;12.40;99.90;;;;;;5014117;28;20064;-83
2021/12/30 06:04:26;;;;;;;0.00;0.00;;;12.30;99.90;;;;;;5014339;28;20457;-82
2021/12/30 06:06:52;;;;;;;1.08;0.75;;;12.30;99.90;;;;;;5014289;28;20091;-82
2021/12/30 06:09:21;;;;;;;0.00;0.00;;;12.30;99.90;;;;;;5013723;28;20040;-79
2021/12/30 06:11:47;;;;;;;0.00;0.00;;;12.30;99.90;;;;;;5014196;28;20052;-79
2021/12/30 06:14:13;;;;;;;0.63;0.55;;;12.20;99.90;;;;;;5014100;28;20065;-79
2021/12/30 06:16:38;;;;;;;0.20;0.20;;;12.30;99.90;;;;;;5013936;28;20030;-83
2021/12/30 06:19:04;;;;;;;0.98;0.68;;;12.30;99.90;;;;;;5012595;28;20022;-83
2021/12/30 06:21:30;;;;;;;0.43;0.10;;;12.20;99.90;;;;;;5013231;28;20397;-79
2021/12/30 06:23:55;;;;;;;0.63;0.63;;;12.20;99.90;;;;;;5014124;28;20026;-82
2021/12/30 06:26:21;;;;;;;0.38;0.38;;;12.20;99.90;;;;;;5013937;28;20022;-78
2021/12/30 06:28:46;;;;;;;0.82;0.82;;;12.20;99.90;;;;;;5012286;28;20501;-82
2021/12/30 06:31:12;;;;;;;0.10;0.10;;;12.20;99.90;;;;;;5013677;28;20034;-82
2021/12/30 06:33:39;;;;;;;0.32;0.32;;;12.20;99.90;;;;;;5013724;28;20030;-83
2021/12/30 06:36:05;;;;;;;0.00;0.00;;;12.20;99.90;;;;;;5004752;28;20494;-78
2021/12/30 06:38:32;;;;;;;0.28;0.28;;;12.20;99.90;;;;;;4994261;28;20448;-81
2021/12/30 06:40:58;;;;;;;2.45;1.35;;;12.20;99.90;;;;;;5005313;28;20037;-82
2021/12/30 06:43:24;;;;;;;0.43;0.38;;;12.20;99.90;;;;;;5003004;28;20105;-82
2021/12/30 06:45:49;;;;;;;1.02;0.75;;;12.20;99.90;;;;;;4993789;28;20501;-83
2021/12/30 06:48:15;;;;;;;0.00;0.00;;;12.20;99.90;;;;;;5005601;28;20447;-78
2021/12/30 06:50:42;;;;;;;3.58;1.25;;;12.20;99.90;;;;;;5012826;28;20520;-79
2021/12/30 06:53:08;;;;;;;3.72;1.65;;;12.20;99.90;;;;;;5013159;28;20026;-82
2021/12/30 06:55:34;;;;;;;0.00;0.00;;;12.20;99.90;;;;;;5013427;28;20026;-82
2021/12/30 06:57:59;;;;;;;2.72;1.77;;;12.20;99.90;;;;;;5012394;28;20061;-82
2021/12/30 07:00:25;;;;;;;0.00;0.00;;;12.30;99.90;;;;;;5013216;28;20021;-82
2021/12/30 07:02:50;;;;;;;0.10;0.10;;;12.30;99.90;;;;;;5013228;28;20025;-79
2021/12/30 07:05:16;;;;;;;0.82;0.73;;;12.30;99.90;;;;;;5012843;28;20497;-82
2021/12/30 07:07:44;;;;;;;3.13;1.27;;;12.30;99.90;;;;;;5013282;28;20532;-82
2021/12/30 07:10:10;;;;;;;1.20;1.17;;;12.30;99.90;;;;;;5012683;28;20030;-82
2021/12/30 07:12:37;;;;;;;5.78;0.82;;;12.30;99.90;;;;;;5011794;28;20532;-79
2021/12/30 07:15:04;;;;;;;0.00;0.00;;;12.30;99.90;;;;;;5013002;28;20022;-79
2021/12/30 07:17:31;;;;;;;0.28;0.28;;;12.20;99.90;;;;;;5012716;28;20017;-78
2021/12/30 07:19:57;;;;;;;0.90;0.85;;;12.30;99.90;;;;;;5012722;28;20533;-83
2021/12/30 07:22:23;;;;;;;5.93;3.53;;;12.20;99.90;;;;;;5012837;28;20026;-83
2021/12/30 07:24:49;;;;;;;7.63;1.60;;;12.20;99.90;;;;;;5008788;28;20105;-81
2021/12/30 07:27:15;;;;;;;2.00;1.00;;;12.20;99.90;;;;;;5012354;28;20172;-82
2021/12/30 07:29:40;;;;;;;0.00;0.00;;;12.20;99.90;;;;;;5011161;28;20057;-78
2021/12/30 07:32:06;;;;;;;0.00;0.00;;;12.20;99.90;;;;;;5011219;28;20081;-83
2021/12/30 07:34:32;;;;;;;4.90;1.27;;;12.20;99.90;;;;;;5012656;28;20034;-83
2021/12/30 07:36:57;;;;;;;0.30;0.30;;;12.20;99.90;;;;;;5012530;28;20026;-82
2021/12/30 07:39:23;;;;;;;0.45;0.45;;;12.10;99.90;;;;;;5012786;28;20382;-83
2021/12/30 07:41:49;;;;;;;30.60;1.30;;;12.10;99.90;;;;;;5012080;28;20374;-79
2021/12/30 07:44:15;;;;;;;7.43;1.50;;;12.10;99.90;;;;;;5012132;28;20040;-83
2021/12/30 07:46:41;;;;;;;0.10;0.10;;;12.10;99.90;;;;;;5012822;28;20076;-82
2021/12/30 07:49:07;;;;;;;0.85;0.85;;;12.00;99.90;;;;;;5006548;28;20448;-79
2021/12/30 07:51:33;;;;;;;0.60;0.52;;;12.00;99.90;;;;;;5012618;28;20022;-83
2021/12/30 07:53:58;;;;;;;0.35;0.30;;;12.00;99.90;;;;;;5011962;28;20392;-79
2021/12/30 07:56:24;;;;;;;0.35;0.30;;;12.00;99.90;;;;;;5012458;28;20029;-79
2021/12/30 07:58:49;;;;;;;0.00;0.00;;;12.10;99.90;;;;;;5012300;28;20084;-83
2021/12/30 08:01:15;;;;;;;2.03;1.75;;;12.00;99.90;;;;;;5012510;28;20726;-81
2021/12/30 08:03:41;;;;;;;0.45;0.45;;;12.10;99.90;;;;;;5012150;28;20436;-82
2021/12/30 08:06:08;;;;;;;0.00;0.00;;;12.00;99.90;;;;;;5011863;28;20029;-79
2021/12/30 08:08:34;;;;;;;0.00;0.00;;;12.00;99.90;;;;;;5011307;28;20489;-79
2021/12/30 08:11:00;;;;;;;0.32;0.30;;;12.00;99.90;;;;;;5014895;28;20032;-82
2021/12/30 08:13:27;;;;;;;0.00;0.00;;;12.00;99.90;;;;;;5016422;28;20030;-81
2021/12/30 08:15:53;;;;;;;0.45;0.28;;;12.00;99.90;;;;;;5016179;28;20049;-81
2021/12/30 08:18:19;;;;;;;3.92;1.00;;;11.90;99.90;;;;;;5015907;28;20025;-79
2021/12/30 08:20:45;;;;;;;0.25;0.20;;;11.90;99.90;;;;;;5009645;28;20026;-79
2021/12/30 08:23:11;;;;;;;0.10;0.10;;;11.90;99.90;;;;;;4996421;28;20153;-81
2021/12/30 08:25:36;;;;;;;0.15;0.15;;;12.00;99.90;;;;;;5008240;28;20504;-82
2021/12/30 08:28:03;;;;;;;3.03;1.38;;;12.00;99.90;;;;;;5015760;28;20057;-81
2021/12/30 08:30:29;;;;;;;0.70;0.60;;;12.00;99.90;;;;;;5014509;28;20026;-79
2021/12/30 08:32:55;;;;;;;0.00;0.00;;;12.00;99.90;;;;;;5015670;28;20030;-81
2021/12/30 08:35:22;;;;;;;0.10;0.10;;;12.10;99.90;;;;;;5014704;28;20496;-79
2021/12/30 08:37:51;;;;;;;1.13;0.43;;;12.00;99.90;;;;;;5015646;28;20026;-81
2021/12/30 08:40:17;;;;;;;1.95;0.90;;;12.10;99.90;;;;;;5015725;28;20457;-81
2021/12/30 08:42:43;;;;;;;0.65;0.65;;;12.20;99.90;;;;;;5014767;28;20109;-82
2021/12/30 08:45:11;;;;;;;0.32;0.28;;;12.20;99.90;;;;;;5015755;28;20030;-79
2021/12/30 08:47:37;;;;;;;1.52;0.25;;;12.30;99.90;;;;;;5015453;28;20033;-78
2021/12/30 08:50:07;;;;;;;0.08;0.08;;;12.40;99.90;;;;;;5014613;28;20022;-81
2021/12/30 08:52:33;;;;;;;0.00;0.00;;;12.40;99.90;;;;;;5014446;28;20076;-81
2021/12/30 08:55:00;;;;;;;0.35;0.35;;;12.50;99.90;;;;;;5015645;28;20029;-81
2021/12/30 08:57:26;;;;;;;0.30;0.30;;;12.50;99.90;;;;;;5015013;28;20029;-79
2021/12/30 08:59:52;;;;;;;0.98;0.95;;;12.60;99.90;;;;;;5014810;28;20523;-79
2021/12/30 09:02:18;;;;;;;0.20;0.20;;;12.60;99.90;;;;;;5014478;28;20021;-79
2021/12/30 09:04:46;;;;;;;1.45;0.75;;;12.60;99.90;;;;;;5014317;28;20053;-81
2021/12/30 09:07:13;;;;;;;1.55;1.45;;;12.60;99.90;;;;;;5015222;28;20034;-81
2021/12/30 09:09:40;;;;;;;0.38;0.38;;;12.70;99.90;;;;;;5015038;28;20448;-82
2021/12/30 09:12:06;;;;;;;1.27;0.75;;;12.80;99.90;;;;;;5015022;28;20026;-82
2021/12/30 09:14:32;;;;;;;4.30;0.90;;;12.80;99.90;;;;;;5014798;28;20026;-79
2021/12/30 09:16:57;;;;;;;2.65;0.30;;;12.70;99.90;;;;;;5014910;28;20451;-82
2021/12/30 09:19:23;;;;;;;0.63;0.63;;;12.80;99.90;;;;;;5014579;28;20026;-81
2021/12/30 09:21:49;;;;;;;2.10;0.43;;;12.80;99.90;;;;;;4998377;28;20027;-79
2021/12/30 09:24:15;;;;;;;0.30;0.30;;;12.80;99.90;;;;;;4995273;28;20034;-79
2021/12/30 09:26:40;;;;;;;1.90;1.13;;;12.80;99.90;;;;;;5014469;28;20032;-82
2021/12/30 09:29:10;;;;;;;0.00;0.00;;;12.80;99.90;;;;;;5014253;28;20053;-81
2021/12/30 09:31:40;;;;;;;0.00;0.00;;;12.80;99.90;;;;;;5014334;28;20541;-81
2021/12/30 09:34:06;;;;;;;2.05;0.95;;;12.80;99.90;;;;;;5014638;28;20026;-81
2021/12/30 09:36:32;;;;;;;1.67;0.35;;;12.80;99.90;;;;;;5013445;28;20030;-81
2021/12/30 09:38:59;;;;;;;7.18;2.63;;;12.80;99.90;;;;;;5013089;28;20044;-79
2021/12/30 09:41:24;;;;;;;10.85;0.30;;;12.80;99.90;;;;;;5014390;28;20393;-79
2021/12/30 09:43:50;;;;;;;0.40;0.28;;;12.80;99.90;;;;;;5013247;28;20032;-82
2021/12/30 09:46:17;;;;;;;1.42;1.33;;;12.90;99.90;;;;;;5014260;28;20491;-82
2021/12/30 09:48:44;;;;;;;8.20;2.05;;;13.00;99.90;;;;;;5011326;28;20065;-82
2021/12/30 09:51:10;;;;;;;0.17;0.17;;;13.00;99.90;;;;;;5013551;28;20026;-79
2021/12/30 09:53:36;;;;;;;0.52;0.28;;;13.10;99.90;;;;;;5014186;28;20477;-82
2021/12/30 09:56:01;;;;;;;0.10;0.10;;;13.20;99.90;;;;;;5013760;28;20029;-81
2021/12/30 09:58:29;;;;;;;0.60;0.60;;;13.20;99.90;;;;;;5014284;28;20029;-81
2021/12/30 10:00:55;;;;;;;1.83;0.60;;;13.30;99.90;;;;;;5014415;28;20022;-82
2021/12/30 10:03:21;;;;;;;0.88;0.70;;;13.40;99.90;;;;;;5014246;28;20029;-82
2021/12/30 10:05:47;;;;;;;6.30;0.52;;;13.40;99.90;;;;;;5013587;28;20037;-79
2021/12/30 10:08:15;;;;;;;4.20;0.65;;;13.50;99.90;;;;;;5012619;28;20026;-82
2021/12/30 10:10:44;;;;;;;0.00;0.00;;;13.50;99.90;;;;;;5013307;28;20485;-81
2021/12/30 10:13:23;;;;;;;9.80;2.55;;;13.70;99.90;;;;;;5011961;28;20029;-81
2021/12/30 10:15:52;;;;;;;15.20;1.05;;;13.70;99.90;;;;;;5012555;28;20029;-81
2021/12/30 10:18:18;;;;;;;0.00;0.00;;;13.80;99.90;;;;;;5013686;28;20026;-79
2021/12/30 10:20:45;;;;;;;0.10;0.10;;;13.90;99.90;;;;;;5007565;28;20026;-83
2021/12/30 10:23:18;;;;;;;0.40;0.40;;;14.00;99.90;;;;;;4994211;28;20102;-82
2021/12/30 10:25:52;;;;;;;0.00;0.00;;;14.00;99.90;;;;;;5004373;28;20022;-81
2021/12/30 10:28:26;;;;;;;0.80;0.80;;;14.10;99.90;;;;;;5013528;28;20058;-81
2021/12/30 10:31:00;;;;;;;9.48;1.58;;;14.20;99.90;;;;;;5012147;28;20030;-79
2021/12/30 10:33:29;;;;;;;1.02;0.70;;;14.20;99.90;;;;;;5013058;28;20029;-82
2021/12/30 10:35:56;;;;;;;2.00;0.85;;;14.30;99.90;;;;;;5013025;28;20054;-82
2021/12/30 10:38:27;;;;;;;0.43;0.43;;;14.40;99.90;;;;;;5013108;28;20471;-81
2021/12/30 10:40:53;;;;;;;3.78;1.55;;;14.50;99.90;;;;;;5013514;28;20101;-81
2021/12/30 10:43:32;;;;;;;0.95;0.63;;;14.60;99.90;;;;;;5013443;28;20030;-82
2021/12/30 10:46:16;;;;;;;0.00;0.00;;;14.70;99.90;;;;;;5012531;28;20497;-81
2021/12/30 10:49:21;;;;;;;3.70;1.40;;;14.70;99.90;;;;;;5012692;28;20034;-81
2021/12/30 10:51:50;;;;;;;1.17;0.35;;;14.80;99.90;;;;;;4991327;28;20102;-81
2021/12/30 10:54:26;;;;;;;2.38;0.93;;;15.00;99.90;;;;;;4991010;28;20038;-79
2021/12/30 10:56:59;;;;;;;1.25;0.88;;;15.00;99.90;;;;;;4991669;28;20545;-79
2021/12/30 10:59:36;;;;;;;0.22;0.22;;;15.10;99.90;;;;;;4984190;28;20050;-81
2021/12/30 11:02:16;;;;;;;0.30;0.30;;;15.20;99.90;;;;;;4988674;28;20038;-82
2021/12/30 11:04:43;;;;;;;0.38;0.38;;;15.30;99.90;;;;;;4991234;28;20570;-82
2021/12/30 11:07:12;;;;;;;0.65;0.65;;;15.30;99.90;;;;;;4991404;28;20070;-82
2021/12/30 11:09:50;;;;;;;2.00;0.32;;;15.40;99.90;;;;;;4974782;28;20041;-79
2021/12/30 11:12:22;;;;;;;0.00;0.00;;;15.40;99.90;;;;;;4991166;28;20042;-81
2021/12/30 11:14:48;;;;;;;1.25;1.15;;;15.60;99.90;;;;;;4991370;28;20138;-81
2021/12/30 11:17:18;;;;;;;0.00;0.00;;;15.60;99.90;;;;;;4991154;28;20069;-81
2021/12/30 11:19:52;;;;;;;0.00;0.00;;;15.70;99.90;;;;;;4990950;28;20485;-81
2021/12/30 11:22:24;;;;;;;0.00;0.00;;;15.60;99.90;;;;;;4985214;28;20043;-79
2021/12/30 11:24:51;;;;;;;4.25;0.05;;;15.70;99.90;;;;;;4986334;28;20050;-79
2021/12/30 11:27:18;;;;;;;0.63;0.52;;;15.70;99.90;;;;;;5009010;28;20057;-82
2021/12/30 11:29:46;;;;;;;0.00;0.00;;;15.80;99.90;;;;;;5012989;28;20093;-82
2021/12/30 11:32:18;;;;;;;0.00;0.00;;;15.90;99.90;;;;;;5008034;28;20076;-81
2021/12/30 11:34:45;;;;;;;1.48;0.90;;;16.00;99.90;;;;;;5012450;28;20493;-79
2021/12/30 11:37:12;;;;;;;0.00;0.00;;;16.10;99.90;;;;;;5009584;28;20022;-80
2021/12/30 11:39:42;;;;;;;0.25;0.00;;;16.10;99.90;;;;;;5012865;28;20481;-82
2021/12/30 11:42:13;;;;;;;0.85;0.85;;;16.10;99.90;;;;;;5006528;28;20058;-82
2021/12/30 11:44:41;;;;;;;0.17;0.03;;;16.20;99.90;;;;;;5006934;28;20412;-82
2021/12/30 11:47:28;;;;;;;1.10;0.32;;;16.30;99.90;;;;;;5006933;28;20049;-80
2021/12/30 11:50:03;;;;;;;0.10;0.10;;;16.40;99.90;;;;;;5008670;28;20038;-79
2021/12/30 11:52:50;;;;;;;0.15;0.15;;;16.50;99.90;;;;;;5005178;28;20472;-82
2021/12/30 11:55:47;;;;;;;0.00;0.00;;;16.50;99.90;;;;;;5012282;28;20117;-82
2021/12/30 11:58:31;;;;;;;0.15;0.15;;;16.70;99.90;;;;;;5006590;28;20022;-82
2021/12/30 12:01:29;;;;;;;0.22;0.22;;;16.80;99.90;;;;;;5010790;28;20030;-80
2021/12/30 12:03:59;;;;;;;0.17;0.17;;;16.60;99.90;;;;;;5003901;28;20411;-79
2021/12/30 12:06:28;;;;;;;0.00;0.00;;;16.50;99.90;;;;;;5012002;28;20109;-80
2021/12/30 12:09:18;;;;;;;0.47;0.47;;;16.70;99.90;;;;;;5012779;28;20081;-82
2021/12/30 12:11:50;;;;;;;0.00;0.00;;;16.70;99.90;;;;;;5012122;28;20489;-81
2021/12/30 12:14:22;;;;;;;1.02;0.80;;;16.80;99.90;;;;;;5012501;28;20097;-80
2021/12/30 12:16:51;;;;;;;0.10;0.10;;;17.00;99.90;;;;;;5012216;28;20022;-79
2021/12/30 12:19:20;;;;;;;0.00;0.00;;;17.10;99.90;;;;;;5010787;28;20080;-83
2021/12/30 12:21:49;;;;;;;0.10;0.10;;;17.20;99.90;;;;;;5010607;28;20347;-82
2021/12/30 12:24:20;;;;;;;0.13;0.13;;;17.30;99.90;;;;;;5012157;28;20022;-82
2021/12/30 12:26:46;;;;;;;56.00;2.80;;;17.30;99.90;;;;;;5011693;28;20029;-79
2021/12/30 12:29:26;;;;;;;0.10;0.10;;;17.40;99.90;;;;;;5012114;28;20037;-79
2021/12/30 12:31:58;;;;;;;0.00;0.00;;;17.50;99.90;;;;;;5010528;28;20029;-83
2021/12/30 12:34:56;;;;;;;0.00;0.00;;;17.50;99.90;;;;;;5011842;28;20045;-82
2021/12/30 12:37:33;;;;;;;0.20;0.20;;;17.60;99.90;;;;;;5007542;28;20038;-82
2021/12/30 12:40:00;;;;;;;0.50;0.50;;;17.60;99.90;;;;;;5011980;28;20029;-79
2021/12/30 12:42:50;;;;;;;2.60;1.20;;;17.70;99.90;;;;;;5012216;28;20030;-79
2021/12/30 12:45:16;;;;;;;0.80;0.80;;;17.90;99.90;;;;;;5012379;28;20036;-83
2021/12/30 12:47:42;;;;;;;0.00;0.00;;;17.80;99.90;;;;;;5011857;28;20401;-80
2021/12/30 12:50:09;;;;;;;0.25;0.25;;;17.80;99.90;;;;;;5010910;28;20519;-82